CYFS

Details ICAO CYFS (YFS)
Name FORT SIMPSON
Region Canada
Timezone America/Yellowknife (UTC-7.0)
Plans Departing 10
Arriving 6
Stats Elevation 555 ft / 169 m (AMSL)
Location 61.760281° -121.236665°
Runways 1
Magnetic Variation 19.165° E
Sunrise 2017-12-14 17:21:12 UTC / 2017-12-14 10:21:12 Local
Sunset 2017-12-14 22:41:10 UTC / 2017-12-14 15:41:10 Local
Advertisement - Login to hide

Runways

ID Width Length Bearing (true) Bearing (mag) Surface Threshold Offset Overrun Length
13 150 ft / 46 m 5,986 ft / 1,825 m 156.01° 136.84° Asphalt 0 ft / 0 m 0 ft / 0 m
31 150 ft / 46 m 5,986 ft / 1,825 m 336.02° 316.85° Asphalt 0 ft / 0 m 0 ft / 0 m

Map

Weather


0- 5 10 15 20 25 30 35+ Temperature / ° C

Clouds and Precipitation
Forecast for 2017-12-14 18:00 UTC. Updated 2 hours ago

Ground ~20,000 ft ~40,000 ft Winds

METAR

CYFS 141900Z 13005KT 070V170 15SM BKN009 OVC110 M08/M09 A2977 RMK SC7AC1 CIG RAG SLP100

TAF

TAF TAF CYFS 141744Z 1418/1506 12005KT P6SM BKN008 OVC020 TEMPO 1418/1506 4SM -SN SCT008 BKN020 BKN100 PROB30 1500/1506 2SM -SN -FZRA BR BKN004 RMK NXT FCST BY 150000Z

Frequencies

Unicom 122.20 MHz FT SIMPSON RDO
Warning: Do not use this data for real-world aviation or navigation. No guarantee of current accuracy is given.